sensor_id;sensor_type;location;lat;lon;timestamp;P1;durP1;ratioP1;P2;durP2;ratioP2
29906;SDS011;16776;50.958;10.994;2023-06-10T00:01:28;1.73;;;1.45;;
29906;SDS011;16776;50.958;10.994;2023-06-10T00:04:01;2.10;;;1.70;;
29906;SDS011;16776;50.958;10.994;2023-06-10T00:06:29;1.90;;;1.45;;
29906;SDS011;16776;50.958;10.994;2023-06-10T00:09:01;1.75;;;1.33;;
29906;SDS011;16776;50.958;10.994;2023-06-10T00:11:30;1.58;;;1.48;;
29906;SDS011;16776;50.958;10.994;2023-06-10T00:13:57;3.47;;;1.58;;
29906;SDS011;16776;50.958;10.994;2023-06-10T00:16:24;1.90;;;1.80;;
29906;SDS011;16776;50.958;10.994;2023-06-10T00:18:51;1.98;;;1.20;;
29906;SDS011;16776;50.958;10.994;2023-06-10T00:21:18;1.52;;;1.42;;
29906;SDS011;16776;50.958;10.994;2023-06-10T00:23:46;1.45;;;1.35;;
29906;SDS011;16776;50.958;10.994;2023-06-10T00:26:13;1.63;;;1.52;;
29906;SDS011;16776;50.958;10.994;2023-06-10T00:28:40;2.13;;;1.42;;
29906;SDS011;16776;50.958;10.994;2023-06-10T00:31:07;1.40;;;1.30;;
29906;SDS011;16776;50.958;10.994;2023-06-10T00:33:33;1.52;;;1.38;;
29906;SDS011;16776;50.958;10.994;2023-06-10T00:36:00;1.33;;;1.23;;
29906;SDS011;16776;50.958;10.994;2023-06-10T00:38:27;1.55;;;1.45;;
29906;SDS011;16776;50.958;10.994;2023-06-10T00:40:55;1.48;;;1.38;;
29906;SDS011;16776;50.958;10.994;2023-06-10T00:43:21;1.52;;;1.42;;
29906;SDS011;16776;50.958;10.994;2023-06-10T00:45:48;1.95;;;1.42;;
29906;SDS011;16776;50.958;10.994;2023-06-10T00:48:16;1.30;;;1.10;;
29906;SDS011;16776;50.958;10.994;2023-06-10T00:50:43;1.50;;;1.40;;
29906;SDS011;16776;50.958;10.994;2023-06-10T00:53:13;2.80;;;1.63;;
29906;SDS011;16776;50.958;10.994;2023-06-10T00:55:40;1.58;;;1.48;;
29906;SDS011;16776;50.958;10.994;2023-06-10T00:58:08;1.42;;;1.33;;
29906;SDS011;16776;50.958;10.994;2023-06-10T01:00:36;1.75;;;1.55;;
29906;SDS011;16776;50.958;10.994;2023-06-10T01:03:04;1.83;;;1.58;;
29906;SDS011;16776;50.958;10.994;2023-06-10T01:05:33;1.38;;;1.27;;
29906;SDS011;16776;50.958;10.994;2023-06-10T01:08:01;1.77;;;1.60;;
29906;SDS011;16776;50.958;10.994;2023-06-10T01:10:36;2.33;;;1.60;;
29906;SDS011;16776;50.958;10.994;2023-06-10T01:13:12;1.55;;;1.45;;
29906;SDS011;16776;50.958;10.994;2023-06-10T01:15:39;1.60;;;1.38;;
29906;SDS011;16776;50.958;10.994;2023-06-10T01:18:07;2.05;;;1.77;;
29906;SDS011;16776;50.958;10.994;2023-06-10T01:20:35;1.33;;;1.10;;
29906;SDS011;16776;50.958;10.994;2023-06-10T01:23:06;2.08;;;1.48;;
29906;SDS011;16776;50.958;10.994;2023-06-10T01:25:34;1.73;;;1.63;;
29906;SDS011;16776;50.958;10.994;2023-06-10T01:28:04;1.63;;;1.40;;
29906;SDS011;16776;50.958;10.994;2023-06-10T01:30:41;3.03;;;1.73;;
29906;SDS011;16776;50.958;10.994;2023-06-10T01:33:12;2.75;;;1.65;;
29906;SDS011;16776;50.958;10.994;2023-06-10T01:35:44;1.38;;;1.27;;
29906;SDS011;16776;50.958;10.994;2023-06-10T01:38:18;3.30;;;1.70;;
29906;SDS011;16776;50.958;10.994;2023-06-10T01:40:51;1.90;;;1.60;;
29906;SDS011;16776;50.958;10.994;2023-06-10T01:43:20;1.52;;;1.42;;
29906;SDS011;16776;50.958;10.994;2023-06-10T01:45:47;1.80;;;1.70;;
29906;SDS011;16776;50.958;10.994;2023-06-10T01:48:13;1.70;;;1.60;;
29906;SDS011;16776;50.958;10.994;2023-06-10T01:50:41;1.42;;;1.33;;
29906;SDS011;16776;50.958;10.994;2023-06-10T01:53:09;1.92;;;1.55;;
29906;SDS011;16776;50.958;10.994;2023-06-10T01:55:37;1.92;;;1.75;;
29906;SDS011;16776;50.958;10.994;2023-06-10T01:58:03;1.60;;;1.50;;
29906;SDS011;16776;50.958;10.994;2023-06-10T02:00:30;2.05;;;1.90;;
29906;SDS011;16776;50.958;10.994;2023-06-10T02:02:56;1.60;;;1.50;;
29906;SDS011;16776;50.958;10.994;2023-06-10T02:05:23;2.67;;;1.83;;
29906;SDS011;16776;50.958;10.994;2023-06-10T02:07:50;1.92;;;1.58;;
29906;SDS011;16776;50.958;10.994;2023-06-10T02:10:17;1.83;;;1.58;;
29906;SDS011;16776;50.958;10.994;2023-06-10T02:12:47;1.67;;;1.55;;
29906;SDS011;16776;50.958;10.994;2023-06-10T02:15:13;2.42;;;1.90;;
29906;SDS011;16776;50.958;10.994;2023-06-10T02:17:41;2.05;;;1.85;;
29906;SDS011;16776;50.958;10.994;2023-06-10T02:20:07;2.63;;;1.70;;
29906;SDS011;16776;50.958;10.994;2023-06-10T02:22:37;1.80;;;1.70;;
29906;SDS011;16776;50.958;10.994;2023-06-10T02:25:04;1.70;;;1.60;;
29906;SDS011;16776;50.958;10.994;2023-06-10T02:27:32;1.58;;;1.48;;
29906;SDS011;16776;50.958;10.994;2023-06-10T02:30:00;2.65;;;1.60;;
29906;SDS011;16776;50.958;10.994;2023-06-10T02:32:26;1.60;;;1.50;;
29906;SDS011;16776;50.958;10.994;2023-06-10T02:34:53;2.33;;;2.03;;
29906;SDS011;16776;50.958;10.994;2023-06-10T02:37:20;2.15;;;1.83;;
29906;SDS011;16776;50.958;10.994;2023-06-10T02:39:47;1.73;;;1.60;;
29906;SDS011;16776;50.958;10.994;2023-06-10T02:42:15;2.17;;;1.85;;
29906;SDS011;16776;50.958;10.994;2023-06-10T02:44:41;1.42;;;1.33;;
29906;SDS011;16776;50.958;10.994;2023-06-10T02:47:12;1.42;;;1.33;;
29906;SDS011;16776;50.958;10.994;2023-06-10T02:49:41;1.50;;;1.40;;
29906;SDS011;16776;50.958;10.994;2023-06-10T02:52:08;2.28;;;1.63;;
29906;SDS011;16776;50.958;10.994;2023-06-10T02:54:36;1.88;;;1.67;;
29906;SDS011;16776;50.958;10.994;2023-06-10T02:57:03;2.20;;;1.38;;
29906;SDS011;16776;50.958;10.994;2023-06-10T02:59:30;1.83;;;1.55;;
29906;SDS011;16776;50.958;10.994;2023-06-10T03:01:59;1.65;;;1.55;;
29906;SDS011;16776;50.958;10.994;2023-06-10T03:04:27;1.65;;;1.40;;
29906;SDS011;16776;50.958;10.994;2023-06-10T03:06:55;1.73;;;1.63;;
29906;SDS011;16776;50.958;10.994;2023-06-10T03:09:22;1.67;;;1.52;;
29906;SDS011;16776;50.958;10.994;2023-06-10T03:11:48;1.42;;;1.33;;
29906;SDS011;16776;50.958;10.994;2023-06-10T03:14:15;1.65;;;1.40;;
29906;SDS011;16776;50.958;10.994;2023-06-10T03:16:42;1.52;;;1.42;;
29906;SDS011;16776;50.958;10.994;2023-06-10T03:19:09;1.80;;;1.35;;
29906;SDS011;16776;50.958;10.994;2023-06-10T03:21:37;1.65;;;1.48;;
29906;SDS011;16776;50.958;10.994;2023-06-10T03:24:04;1.60;;;1.50;;
29906;SDS011;16776;50.958;10.994;2023-06-10T03:26:31;2.13;;;1.70;;
29906;SDS011;16776;50.958;10.994;2023-06-10T03:28:58;1.63;;;1.52;;
29906;SDS011;16776;50.958;10.994;2023-06-10T03:31:24;1.60;;;1.50;;
29906;SDS011;16776;50.958;10.994;2023-06-10T03:33:51;1.60;;;1.50;;
29906;SDS011;16776;50.958;10.994;2023-06-10T03:36:17;1.75;;;1.63;;
29906;SDS011;16776;50.958;10.994;2023-06-10T03:38:45;1.70;;;1.55;;
29906;SDS011;16776;50.958;10.994;2023-06-10T03:41:12;1.58;;;1.48;;
29906;SDS011;16776;50.958;10.994;2023-06-10T03:43:40;1.63;;;1.52;;
29906;SDS011;16776;50.958;10.994;2023-06-10T03:46:07;2.78;;;1.58;;
29906;SDS011;16776;50.958;10.994;2023-06-10T03:48:33;1.52;;;1.42;;
29906;SDS011;16776;50.958;10.994;2023-06-10T03:51:00;3.55;;;1.70;;
29906;SDS011;16776;50.958;10.994;2023-06-10T03:53:26;1.85;;;1.73;;
29906;SDS011;16776;50.958;10.994;2023-06-10T03:55:54;3.08;;;2.00;;
29906;SDS011;16776;50.958;10.994;2023-06-10T03:58:22;2.08;;;1.67;;
29906;SDS011;16776;50.958;10.994;2023-06-10T04:00:49;1.42;;;1.33;;
29906;SDS011;16776;50.958;10.994;2023-06-10T04:03:21;2.17;;;1.73;;
29906;SDS011;16776;50.958;10.994;2023-06-10T04:05:47;1.88;;;1.58;;
29906;SDS011;16776;50.958;10.994;2023-06-10T04:08:15;1.45;;;1.35;;
29906;SDS011;16776;50.958;10.994;2023-06-10T04:10:44;2.10;;;1.48;;
29906;SDS011;16776;50.958;10.994;2023-06-10T04:13:11;1.80;;;1.50;;
29906;SDS011;16776;50.958;10.994;2023-06-10T04:15:39;1.90;;;1.60;;
29906;SDS011;16776;50.958;10.994;2023-06-10T04:18:08;1.80;;;1.55;;
29906;SDS011;16776;50.958;10.994;2023-06-10T04:20:35;1.40;;;1.30;;
29906;SDS011;16776;50.958;10.994;2023-06-10T04:23:01;1.60;;;1.40;;
29906;SDS011;16776;50.958;10.994;2023-06-10T04:25:28;1.83;;;1.70;;
29906;SDS011;16776;50.958;10.994;2023-06-10T04:27:55;1.98;;;1.67;;
29906;SDS011;16776;50.958;10.994;2023-06-10T04:30:25;2.03;;;1.55;;
29906;SDS011;16776;50.958;10.994;2023-06-10T04:32:52;2.47;;;1.40;;
29906;SDS011;16776;50.958;10.994;2023-06-10T04:35:19;2.53;;;1.52;;
29906;SDS011;16776;50.958;10.994;2023-06-10T04:37:46;2.42;;;1.80;;
29906;SDS011;16776;50.958;10.994;2023-06-10T04:40:13;3.22;;;1.70;;
29906;SDS011;16776;50.958;10.994;2023-06-10T04:42:40;2.38;;;1.60;;
29906;SDS011;16776;50.958;10.994;2023-06-10T04:45:10;2.75;;;1.67;;
29906;SDS011;16776;50.958;10.994;2023-06-10T04:47:38;1.60;;;1.50;;
29906;SDS011;16776;50.958;10.994;2023-06-10T04:50:05;1.92;;;1.67;;
29906;SDS011;16776;50.958;10.994;2023-06-10T04:52:32;1.35;;;1.25;;
29906;SDS011;16776;50.958;10.994;2023-06-10T04:55:02;2.20;;;1.42;;
29906;SDS011;16776;50.958;10.994;2023-06-10T04:57:29;2.75;;;1.77;;
29906;SDS011;16776;50.958;10.994;2023-06-10T04:59:55;2.20;;;1.80;;
29906;SDS011;16776;50.958;10.994;2023-06-10T05:02:22;2.28;;;1.70;;
29906;SDS011;16776;50.958;10.994;2023-06-10T05:04:50;1.58;;;1.33;;
29906;SDS011;16776;50.958;10.994;2023-06-10T05:07:18;1.90;;;1.70;;
29906;SDS011;16776;50.958;10.994;2023-06-10T05:09:45;1.80;;;1.70;;
29906;SDS011;16776;50.958;10.994;2023-06-10T05:12:12;2.38;;;1.45;;
29906;SDS011;16776;50.958;10.994;2023-06-10T05:14:38;2.17;;;1.98;;
29906;SDS011;16776;50.958;10.994;2023-06-10T05:17:05;1.60;;;1.33;;
29906;SDS011;16776;50.958;10.994;2023-06-10T05:19:32;1.80;;;1.67;;
29906;SDS011;16776;50.958;10.994;2023-06-10T05:22:00;2.25;;;1.63;;
29906;SDS011;16776;50.958;10.994;2023-06-10T05:24:27;1.83;;;1.60;;
29906;SDS011;16776;50.958;10.994;2023-06-10T05:26:56;1.52;;;1.42;;
29906;SDS011;16776;50.958;10.994;2023-06-10T05:29:23;2.25;;;1.80;;
29906;SDS011;16776;50.958;10.994;2023-06-10T05:31:49;2.28;;;2.08;;
29906;SDS011;16776;50.958;10.994;2023-06-10T05:34:16;2.10;;;1.90;;
29906;SDS011;16776;50.958;10.994;2023-06-10T05:36:43;3.35;;;1.77;;
29906;SDS011;16776;50.958;10.994;2023-06-10T05:39:11;2.70;;;1.83;;
29906;SDS011;16776;50.958;10.994;2023-06-10T05:41:40;1.73;;;1.63;;
29906;SDS011;16776;50.958;10.994;2023-06-10T05:44:07;1.60;;;1.48;;
29906;SDS011;16776;50.958;10.994;2023-06-10T05:46:34;1.88;;;1.50;;
29906;SDS011;16776;50.958;10.994;2023-06-10T05:49:00;1.75;;;1.20;;
29906;SDS011;16776;50.958;10.994;2023-06-10T05:51:27;2.70;;;1.40;;
29906;SDS011;16776;50.958;10.994;2023-06-10T05:53:54;2.50;;;1.65;;
29906;SDS011;16776;50.958;10.994;2023-06-10T05:56:22;1.67;;;1.23;;
29906;SDS011;16776;50.958;10.994;2023-06-10T05:58:48;1.77;;;1.40;;
29906;SDS011;16776;50.958;10.994;2023-06-10T06:01:15;1.88;;;1.52;;
29906;SDS011;16776;50.958;10.994;2023-06-10T06:03:42;3.28;;;1.48;;
29906;SDS011;16776;50.958;10.994;2023-06-10T06:06:09;2.03;;;1.83;;
29906;SDS011;16776;50.958;10.994;2023-06-10T06:08:36;2.58;;;1.27;;
29906;SDS011;16776;50.958;10.994;2023-06-10T06:11:03;1.83;;;1.50;;
29906;SDS011;16776;50.958;10.994;2023-06-10T06:13:31;1.70;;;1.52;;
29906;SDS011;16776;50.958;10.994;2023-06-10T06:15:57;2.65;;;1.58;;
29906;SDS011;16776;50.958;10.994;2023-06-10T06:18:24;2.17;;;1.65;;
29906;SDS011;16776;50.958;10.994;2023-06-10T06:20:50;2.00;;;1.55;;
29906;SDS011;16776;50.958;10.994;2023-06-10T06:23:17;2.72;;;1.65;;
29906;SDS011;16776;50.958;10.994;2023-06-10T06:25:44;2.35;;;2.15;;
29906;SDS011;16776;50.958;10.994;2023-06-10T06:28:10;1.98;;;1.55;;
29906;SDS011;16776;50.958;10.994;2023-06-10T06:30:38;2.08;;;1.45;;
29906;SDS011;16776;50.958;10.994;2023-06-10T06:33:05;1.60;;;1.50;;
29906;SDS011;16776;50.958;10.994;2023-06-10T06:35:32;3.58;;;1.48;;
29906;SDS011;16776;50.958;10.994;2023-06-10T06:37:59;3.67;;;1.80;;
29906;SDS011;16776;50.958;10.994;2023-06-10T06:40:25;2.13;;;1.92;;
29906;SDS011;16776;50.958;10.994;2023-06-10T06:42:55;1.85;;;1.73;;
29906;SDS011;16776;50.958;10.994;2023-06-10T06:45:21;2.97;;;1.90;;
29906;SDS011;16776;50.958;10.994;2023-06-10T06:47:50;1.95;;;1.75;;
29906;SDS011;16776;50.958;10.994;2023-06-10T06:50:18;3.10;;;1.83;;
29906;SDS011;16776;50.958;10.994;2023-06-10T06:52:44;1.90;;;1.73;;
29906;SDS011;16776;50.958;10.994;2023-06-10T06:55:11;2.05;;;1.85;;
29906;SDS011;16776;50.958;10.994;2023-06-10T06:57:38;1.67;;;1.38;;
29906;SDS011;16776;50.958;10.994;2023-06-10T07:00:05;1.95;;;1.52;;
29906;SDS011;16776;50.958;10.994;2023-06-10T07:02:33;2.17;;;2.00;;
29906;SDS011;16776;50.958;10.994;2023-06-10T07:05:02;4.13;;;2.38;;
29906;SDS011;16776;50.958;10.994;2023-06-10T07:07:29;3.55;;;1.73;;
29906;SDS011;16776;50.958;10.994;2023-06-10T07:09:55;2.15;;;1.80;;
29906;SDS011;16776;50.958;10.994;2023-06-10T07:12:22;1.88;;;1.77;;
29906;SDS011;16776;50.958;10.994;2023-06-10T07:14:49;2.50;;;1.88;;
29906;SDS011;16776;50.958;10.994;2023-06-10T07:17:18;2.15;;;1.70;;
29906;SDS011;16776;50.958;10.994;2023-06-10T07:19:44;2.75;;;2.20;;
29906;SDS011;16776;50.958;10.994;2023-06-10T07:22:13;2.20;;;2.00;;
29906;SDS011;16776;50.958;10.994;2023-06-10T07:24:40;3.03;;;1.77;;
29906;SDS011;16776;50.958;10.994;2023-06-10T07:27:07;2.33;;;2.15;;
29906;SDS011;16776;50.958;10.994;2023-06-10T07:29:35;3.88;;;1.98;;
29906;SDS011;16776;50.958;10.994;2023-06-10T07:32:02;1.85;;;1.75;;
29906;SDS011;16776;50.958;10.994;2023-06-10T07:34:29;2.28;;;2.08;;
29906;SDS011;16776;50.958;10.994;2023-06-10T07:36:56;1.90;;;1.80;;
29906;SDS011;16776;50.958;10.994;2023-06-10T07:39:24;1.90;;;1.80;;
29906;SDS011;16776;50.958;10.994;2023-06-10T07:41:51;1.83;;;1.65;;
29906;SDS011;16776;50.958;10.994;2023-06-10T07:44:22;1.73;;;1.63;;
29906;SDS011;16776;50.958;10.994;2023-06-10T07:46:49;1.90;;;1.80;;
29906;SDS011;16776;50.958;10.994;2023-06-10T07:49:15;2.95;;;1.90;;
29906;SDS011;16776;50.958;10.994;2023-06-10T07:51:42;2.78;;;2.22;;
29906;SDS011;16776;50.958;10.994;2023-06-10T07:54:09;2.20;;;2.00;;
29906;SDS011;16776;50.958;10.994;2023-06-10T07:56:38;2.00;;;1.73;;
29906;SDS011;16776;50.958;10.994;2023-06-10T07:59:05;2.45;;;2.25;;
29906;SDS011;16776;50.958;10.994;2023-06-10T08:01:31;2.33;;;2.13;;
29906;SDS011;16776;50.958;10.994;2023-06-10T08:03:58;2.05;;;1.92;;
29906;SDS011;16776;50.958;10.994;2023-06-10T08:06:25;1.95;;;1.80;;
29906;SDS011;16776;50.958;10.994;2023-06-10T08:08:51;3.30;;;2.28;;
29906;SDS011;16776;50.958;10.994;2023-06-10T08:11:25;2.50;;;2.03;;
29906;SDS011;16776;50.958;10.994;2023-06-10T08:13:54;2.20;;;2.00;;
29906;SDS011;16776;50.958;10.994;2023-06-10T08:16:23;2.97;;;2.13;;
29906;SDS011;16776;50.958;10.994;2023-06-10T08:18:50;2.55;;;2.20;;
29906;SDS011;16776;50.958;10.994;2023-06-10T08:21:16;2.67;;;2.08;;
29906;SDS011;16776;50.958;10.994;2023-06-10T08:23:43;2.72;;;2.20;;
29906;SDS011;16776;50.958;10.994;2023-06-10T08:26:10;3.58;;;2.20;;
29906;SDS011;16776;50.958;10.994;2023-06-10T08:28:36;2.05;;;1.85;;
29906;SDS011;16776;50.958;10.994;2023-06-10T08:31:04;2.17;;;1.85;;
29906;SDS011;16776;50.958;10.994;2023-06-10T08:33:31;2.33;;;2.10;;
29906;SDS011;16776;50.958;10.994;2023-06-10T08:35:58;2.10;;;1.90;;
29906;SDS011;16776;50.958;10.994;2023-06-10T08:38:25;2.60;;;2.10;;
29906;SDS011;16776;50.958;10.994;2023-06-10T08:40:51;3.35;;;2.60;;
29906;SDS011;16776;50.958;10.994;2023-06-10T08:43:22;2.88;;;2.38;;
29906;SDS011;16776;50.958;10.994;2023-06-10T08:45:59;3.28;;;2.53;;
29906;SDS011;16776;50.958;10.994;2023-06-10T08:48:31;2.03;;;1.92;;
29906;SDS011;16776;50.958;10.994;2023-06-10T08:51:02;3.05;;;2.25;;
29906;SDS011;16776;50.958;10.994;2023-06-10T08:53:30;3.80;;;2.33;;
29906;SDS011;16776;50.958;10.994;2023-06-10T08:56:02;3.08;;;2.55;;
29906;SDS011;16776;50.958;10.994;2023-06-10T08:58:33;2.22;;;2.03;;
29906;SDS011;16776;50.958;10.994;2023-06-10T09:01:05;1.90;;;1.80;;
29906;SDS011;16776;50.958;10.994;2023-06-10T09:03:33;2.38;;;2.22;;
29906;SDS011;16776;50.958;10.994;2023-06-10T09:06:02;2.97;;;2.70;;
29906;SDS011;16776;50.958;10.994;2023-06-10T09:08:31;2.53;;;2.33;;
29906;SDS011;16776;50.958;10.994;2023-06-10T09:10:59;4.38;;;2.60;;
29906;SDS011;16776;50.958;10.994;2023-06-10T09:13:26;2.85;;;2.42;;
29906;SDS011;16776;50.958;10.994;2023-06-10T09:15:53;3.83;;;2.00;;
29906;SDS011;16776;50.958;10.994;2023-06-10T09:18:21;2.13;;;1.95;;
29906;SDS011;16776;50.958;10.994;2023-06-10T09:20:52;2.20;;;2.03;;
29906;SDS011;16776;50.958;10.994;2023-06-10T09:23:19;2.28;;;2.10;;
29906;SDS011;16776;50.958;10.994;2023-06-10T09:25:46;2.33;;;2.10;;
29906;SDS011;16776;50.958;10.994;2023-06-10T09:28:21;2.47;;;2.28;;
29906;SDS011;16776;50.958;10.994;2023-06-10T09:30:48;2.72;;;2.53;;
29906;SDS011;16776;50.958;10.994;2023-06-10T09:33:14;2.33;;;2.13;;
29906;SDS011;16776;50.958;10.994;2023-06-10T09:35:45;3.08;;;2.22;;
29906;SDS011;16776;50.958;10.994;2023-06-10T09:38:14;2.40;;;2.20;;
29906;SDS011;16776;50.958;10.994;2023-06-10T09:40:48;2.40;;;2.08;;
29906;SDS011;16776;50.958;10.994;2023-06-10T09:43:16;2.72;;;2.50;;
29906;SDS011;16776;50.958;10.994;2023-06-10T09:45:42;2.75;;;2.20;;
29906;SDS011;16776;50.958;10.994;2023-06-10T09:48:13;2.85;;;2.30;;
29906;SDS011;16776;50.958;10.994;2023-06-10T09:50:41;2.75;;;2.47;;
29906;SDS011;16776;50.958;10.994;2023-06-10T09:53:08;3.65;;;2.67;;
29906;SDS011;16776;50.958;10.994;2023-06-10T09:55:38;2.33;;;2.13;;
29906;SDS011;16776;50.958;10.994;2023-06-10T09:58:05;2.97;;;2.67;;
29906;SDS011;16776;50.958;10.994;2023-06-10T10:00:32;2.45;;;2.25;;
29906;SDS011;16776;50.958;10.994;2023-06-10T10:02:59;2.47;;;2.28;;
29906;SDS011;16776;50.958;10.994;2023-06-10T10:05:28;2.63;;;2.42;;
29906;SDS011;16776;50.958;10.994;2023-06-10T10:07:55;2.90;;;2.20;;
29906;SDS011;16776;50.958;10.994;2023-06-10T10:10:22;2.40;;;2.20;;
29906;SDS011;16776;50.958;10.994;2023-06-10T10:12:53;3.08;;;2.83;;
29906;SDS011;16776;50.958;10.994;2023-06-10T10:15:28;3.38;;;2.22;;
29906;SDS011;16776;50.958;10.994;2023-06-10T10:17:58;3.13;;;2.85;;
29906;SDS011;16776;50.958;10.994;2023-06-10T10:20:31;3.00;;;2.42;;
29906;SDS011;16776;50.958;10.994;2023-06-10T10:23:02;3.78;;;2.78;;
29906;SDS011;16776;50.958;10.994;2023-06-10T10:25:31;2.70;;;2.42;;
29906;SDS011;16776;50.958;10.994;2023-06-10T10:28:07;2.47;;;2.28;;
29906;SDS011;16776;50.958;10.994;2023-06-10T10:30:37;2.80;;;2.60;;
29906;SDS011;16776;50.958;10.994;2023-06-10T10:33:07;3.10;;;2.90;;
29906;SDS011;16776;50.958;10.994;2023-06-10T10:35:38;4.82;;;2.80;;
29906;SDS011;16776;50.958;10.994;2023-06-10T10:38:06;2.78;;;2.60;;
29906;SDS011;16776;50.958;10.994;2023-06-10T10:40:36;2.22;;;2.13;;
29906;SDS011;16776;50.958;10.994;2023-06-10T10:43:05;2.72;;;2.53;;
29906;SDS011;16776;50.958;10.994;2023-06-10T10:45:33;2.85;;;2.65;;
29906;SDS011;16776;50.958;10.994;2023-06-10T10:48:03;4.88;;;3.13;;
29906;SDS011;16776;50.958;10.994;2023-06-10T10:50:31;2.80;;;2.60;;
29906;SDS011;16776;50.958;10.994;2023-06-10T10:53:00;3.03;;;2.42;;
29906;SDS011;16776;50.958;10.994;2023-06-10T10:55:28;2.88;;;2.67;;
29906;SDS011;16776;50.958;10.994;2023-06-10T10:57:57;3.53;;;3.20;;
29906;SDS011;16776;50.958;10.994;2023-06-10T11:00:28;3.20;;;2.90;;
29906;SDS011;16776;50.958;10.994;2023-06-10T11:03:00;3.40;;;2.83;;
29906;SDS011;16776;50.958;10.994;2023-06-10T11:05:31;2.85;;;2.65;;
29906;SDS011;16776;50.958;10.994;2023-06-10T11:08:02;3.47;;;3.00;;
29906;SDS011;16776;50.958;10.994;2023-06-10T11:10:30;3.95;;;2.80;;
29906;SDS011;16776;50.958;10.994;2023-06-10T11:12:58;3.55;;;3.30;;
29906;SDS011;16776;50.958;10.994;2023-06-10T11:15:29;3.28;;;2.97;;
29906;SDS011;16776;50.958;10.994;2023-06-10T11:18:12;3.40;;;3.00;;
29906;SDS011;16776;50.958;10.994;2023-06-10T11:20:44;2.78;;;2.58;;
29906;SDS011;16776;50.958;10.994;2023-06-10T11:23:24;2.63;;;2.50;;
29906;SDS011;16776;50.958;10.994;2023-06-10T11:26:00;3.90;;;2.80;;
29906;SDS011;16776;50.958;10.994;2023-06-10T11:28:36;4.43;;;3.92;;
29906;SDS011;16776;50.958;10.994;2023-06-10T11:31:03;4.10;;;3.80;;
29906;SDS011;16776;50.958;10.994;2023-06-10T11:33:30;3.65;;;3.35;;
29906;SDS011;16776;50.958;10.994;2023-06-10T11:35:57;4.10;;;3.67;;
29906;SDS011;16776;50.958;10.994;2023-06-10T11:38:34;3.70;;;3.40;;
29906;SDS011;16776;50.958;10.994;2023-06-10T11:41:01;3.42;;;3.22;;
29906;SDS011;16776;50.958;10.994;2023-06-10T11:43:28;4.00;;;3.70;;
29906;SDS011;16776;50.958;10.994;2023-06-10T11:45:56;4.28;;;3.72;;
29906;SDS011;16776;50.958;10.994;2023-06-10T11:48:24;5.88;;;3.58;;
29906;SDS011;16776;50.958;10.994;2023-06-10T11:50:53;4.32;;;3.92;;
29906;SDS011;16776;50.958;10.994;2023-06-10T11:53:20;4.50;;;4.07;;
29906;SDS011;16776;50.958;10.994;2023-06-10T11:55:47;3.95;;;3.55;;
29906;SDS011;16776;50.958;10.994;2023-06-10T11:58:17;3.80;;;3.50;;
29906;SDS011;16776;50.958;10.994;2023-06-10T12:00:45;3.95;;;3.65;;
29906;SDS011;16776;50.958;10.994;2023-06-10T12:03:12;3.92;;;3.55;;
29906;SDS011;16776;50.958;10.994;2023-06-10T12:05:55;4.15;;;3.42;;
29906;SDS011;16776;50.958;10.994;2023-06-10T12:08:25;3.97;;;3.67;;
29906;SDS011;16776;50.958;10.994;2023-06-10T12:10:52;4.30;;;3.85;;
29906;SDS011;16776;50.958;10.994;2023-06-10T12:13:19;4.45;;;3.92;;
29906;SDS011;16776;50.958;10.994;2023-06-10T12:15:48;5.00;;;4.05;;
29906;SDS011;16776;50.958;10.994;2023-06-10T12:18:16;4.30;;;3.90;;
29906;SDS011;16776;50.958;10.994;2023-06-10T12:20:43;4.70;;;4.30;;
29906;SDS011;16776;50.958;10.994;2023-06-10T12:23:11;3.88;;;3.58;;
29906;SDS011;16776;50.958;10.994;2023-06-10T12:25:49;4.70;;;4.15;;
29906;SDS011;16776;50.958;10.994;2023-06-10T12:28:20;3.97;;;3.65;;
29906;SDS011;16776;50.958;10.994;2023-06-10T12:30:47;4.72;;;4.20;;
29906;SDS011;16776;50.958;10.994;2023-06-10T12:33:17;4.95;;;4.25;;
29906;SDS011;16776;50.958;10.994;2023-06-10T12:35:47;3.72;;;3.42;;
29906;SDS011;16776;50.958;10.994;2023-06-10T12:38:22;4.28;;;3.80;;
29906;SDS011;16776;50.958;10.994;2023-06-10T12:40:49;3.88;;;3.58;;
29906;SDS011;16776;50.958;10.994;2023-06-10T12:43:19;4.55;;;3.88;;
29906;SDS011;16776;50.958;10.994;2023-06-10T12:45:49;4.38;;;3.95;;
29906;SDS011;16776;50.958;10.994;2023-06-10T12:48:17;3.45;;;3.22;;
29906;SDS011;16776;50.958;10.994;2023-06-10T12:50:50;6.28;;;3.75;;
29906;SDS011;16776;50.958;10.994;2023-06-10T12:53:17;5.60;;;4.10;;
29906;SDS011;16776;50.958;10.994;2023-06-10T12:55:47;4.68;;;4.30;;
29906;SDS011;16776;50.958;10.994;2023-06-10T12:58:13;4.85;;;4.45;;
29906;SDS011;16776;50.958;10.994;2023-06-10T13:00:40;4.20;;;3.80;;
29906;SDS011;16776;50.958;10.994;2023-06-10T13:03:08;4.80;;;4.40;;
29906;SDS011;16776;50.958;10.994;2023-06-10T13:05:35;4.60;;;4.20;;
29906;SDS011;16776;50.958;10.994;2023-06-10T13:08:05;5.75;;;4.40;;
29906;SDS011;16776;50.958;10.994;2023-06-10T13:10:32;4.38;;;3.97;;
29906;SDS011;16776;50.958;10.994;2023-06-10T13:13:04;3.72;;;3.42;;
29906;SDS011;16776;50.958;10.994;2023-06-10T13:15:33;4.30;;;3.90;;
29906;SDS011;16776;50.958;10.994;2023-06-10T13:18:01;4.75;;;4.28;;
29906;SDS011;16776;50.958;10.994;2023-06-10T13:20:28;4.03;;;3.60;;
29906;SDS011;16776;50.958;10.994;2023-06-10T13:22:58;4.30;;;4.00;;
29906;SDS011;16776;50.958;10.994;2023-06-10T13:25:26;5.18;;;4.28;;
29906;SDS011;16776;50.958;10.994;2023-06-10T13:27:53;4.40;;;3.95;;
29906;SDS011;16776;50.958;10.994;2023-06-10T13:30:21;3.97;;;3.50;;
29906;SDS011;16776;50.958;10.994;2023-06-10T13:32:51;3.95;;;3.55;;
29906;SDS011;16776;50.958;10.994;2023-06-10T13:35:18;4.10;;;3.70;;
29906;SDS011;16776;50.958;10.994;2023-06-10T13:37:44;3.67;;;3.45;;
29906;SDS011;16776;50.958;10.994;2023-06-10T13:40:11;3.70;;;3.45;;
29906;SDS011;16776;50.958;10.994;2023-06-10T13:42:40;4.75;;;4.22;;
29906;SDS011;16776;50.958;10.994;2023-06-10T13:45:15;4.15;;;3.75;;
29906;SDS011;16776;50.958;10.994;2023-06-10T13:47:43;4.22;;;3.47;;
29906;SDS011;16776;50.958;10.994;2023-06-10T13:50:10;3.38;;;3.08;;
29906;SDS011;16776;50.958;10.994;2023-06-10T13:52:38;3.72;;;3.10;;
29906;SDS011;16776;50.958;10.994;2023-06-10T13:55:05;3.65;;;3.35;;
29906;SDS011;16776;50.958;10.994;2023-06-10T13:57:32;3.10;;;2.90;;
29906;SDS011;16776;50.958;10.994;2023-06-10T13:59:59;3.30;;;3.10;;
29906;SDS011;16776;50.958;10.994;2023-06-10T14:02:25;3.17;;;2.97;;
29906;SDS011;16776;50.958;10.994;2023-06-10T14:04:53;3.47;;;3.17;;
29906;SDS011;16776;50.958;10.994;2023-06-10T14:07:20;3.45;;;3.20;;
29906;SDS011;16776;50.958;10.994;2023-06-10T14:09:47;3.15;;;2.95;;
29906;SDS011;16776;50.958;10.994;2023-06-10T14:12:13;3.20;;;3.00;;
29906;SDS011;16776;50.958;10.994;2023-06-10T14:14:40;3.10;;;2.80;;
29906;SDS011;16776;50.958;10.994;2023-06-10T14:17:07;4.55;;;3.25;;
29906;SDS011;16776;50.958;10.994;2023-06-10T14:19:33;3.60;;;3.30;;
29906;SDS011;16776;50.958;10.994;2023-06-10T14:22:01;2.80;;;2.60;;
29906;SDS011;16776;50.958;10.994;2023-06-10T14:24:28;2.38;;;2.17;;
29906;SDS011;16776;50.958;10.994;2023-06-10T14:26:56;2.78;;;2.55;;
29906;SDS011;16776;50.958;10.994;2023-06-10T14:29:23;2.60;;;2.40;;
29906;SDS011;16776;50.958;10.994;2023-06-10T14:31:53;2.30;;;2.08;;
29906;SDS011;16776;50.958;10.994;2023-06-10T14:34:21;2.10;;;2.00;;
29906;SDS011;16776;50.958;10.994;2023-06-10T14:36:48;3.45;;;2.47;;
29906;SDS011;16776;50.958;10.994;2023-06-10T14:39:16;2.67;;;2.47;;